»·PEaware :: N7234J KGEG-CAD4

N7234J :: KGEG-CAD4

FLIGHT INFORMATION

Flight Status: Arrived
Operator: Privately registered:
United States
More flights under this callsign
Pilot: Wayne R. (17783)
Aircraft: PIPER PA-28 CHEROKEE ARCHER
(P28A)
More flights by this aircraft type
Origin: KGEG Spokane Intl
United States
Destination: CAD4 Trail
Canada
More flights between these airports :: More routes between these airports
Route: +
File this flight plan on PilotEdge
Remarks:
Altitude:
(Current/Filed)
7,500ft
Speed:
(Current/Filed)
150kts
Departed: 19-Nov-19 08:37 PM
Arrived: 19-Nov-19 09:38 PM
Distance/Time
Traveled:
86nm/1:00
Distance/Time
To Go:
Arrived

Flight Plot

Page will automatically refresh every two minutes.

Flight plan parsing failed; only flown route is shown


Map Options




Map Legend


Flown Route
Filed Route
Departure Airport
Arrival Airport
Navaid (VOR, NDB)
Fix

Horizontal Profiles

Position Reports

Time Latitude Longitude Heading Altitude Ground
Speed
19-Nov-19 20:27 47.620431 -117.528554 0 2360ft 0kts
19-Nov-19 20:28 47.620431 -117.528554 0 2360ft 0kts
19-Nov-19 20:29 47.620431 -117.528554 0 2360ft 0kts
19-Nov-19 20:30 47.620431 -117.528554 0 2360ft 0kts
19-Nov-19 20:31 47.620431 -117.528554 0 2360ft 0kts
19-Nov-19 20:32 47.622635 -117.527698 44 2354ft 24kts
19-Nov-19 20:33 47.628101 -117.519429 42 2330ft 26kts
19-Nov-19 20:34 47.630409 -117.517392 317 2319ft 0kts
19-Nov-19 20:35 47.630413 -117.517398 317 2319ft 2kts
19-Nov-19 20:36 47.621785 -117.532423 225 2583ft 93kts
19-Nov-19 20:37 47.598120 -117.541149 141 3494ft 111kts
19-Nov-19 20:38 47.589725 -117.495192 80 3679ft 120kts
19-Nov-19 20:39 47.599967 -117.447732 54 3446ft 116kts
19-Nov-19 20:40 47.621217 -117.415761 57 3402ft 110kts
19-Nov-19 20:41 47.644095 -117.392744 349 3417ft 106kts
19-Nov-19 20:42 47.672494 -117.406954 338 3416ft 107kts
19-Nov-19 20:43 47.702240 -117.407020 3 3416ft 107kts
19-Nov-19 20:44 47.732470 -117.401930 3 3416ft 107kts
19-Nov-19 20:45 47.762109 -117.396119 19 3412ft 107kts
19-Nov-19 20:46 47.789517 -117.376524 22 3417ft 107kts
19-Nov-19 20:47 47.818706 -117.374217 354 3417ft 106kts
19-Nov-19 20:48 47.846023 -117.376301 356 3863ft 93kts
19-Nov-19 20:49 47.872223 -117.377612 356 4370ft 91kts
19-Nov-19 20:50 47.897498 -117.378736 356 4867ft 90kts
19-Nov-19 20:51 47.922926 -117.379830 356 5374ft 92kts
19-Nov-19 20:52 47.948208 -117.375433 10 5863ft 93kts
19-Nov-19 20:53 47.973678 -117.366327 10 6364ft 93kts
19-Nov-19 20:54 47.998964 -117.357291 10 6863ft 92kts
19-Nov-19 20:55 48.023966 -117.348385 11 7358ft 91kts
19-Nov-19 20:56 48.051789 -117.338540 11 7418ft 108kts
19-Nov-19 20:57 48.080293 -117.328401 11 7415ft 99kts
19-Nov-19 20:58 48.107330 -117.319284 10 7418ft 98kts
19-Nov-19 20:59 48.134265 -117.310383 10 7418ft 98kts
19-Nov-19 21:00 48.161024 -117.301533 10 7418ft 98kts
19-Nov-19 21:01 48.187315 -117.292817 10 7418ft 99kts
19-Nov-19 21:02 48.214335 -117.283863 10 7418ft 98kts
19-Nov-19 21:03 48.241256 -117.275780 2 7419ft 98kts
19-Nov-19 21:04 48.269557 -117.273657 1 7419ft 104kts
19-Nov-19 21:05 48.298910 -117.271466 3 7417ft 104kts
19-Nov-19 21:06 48.328883 -117.269108 1 7418ft 109kts
19-Nov-19 21:07 48.358860 -117.266956 1 7419ft 104kts
19-Nov-19 21:08 48.387654 -117.271575 349 7420ft 103kts
19-Nov-19 21:09 48.416700 -117.279554 349 7440ft 104kts
19-Nov-19 21:10 48.445411 -117.287466 349 7440ft 104kts
19-Nov-19 21:11 48.474720 -117.294792 357 7439ft 104kts
19-Nov-19 21:12 48.504243 -117.296136 357 7441ft 104kts
19-Nov-19 21:13 48.532949 -117.307221 341 7439ft 104kts
19-Nov-19 21:14 48.561122 -117.319040 350 7438ft 103kts
19-Nov-19 21:15 48.590797 -117.326739 349 7299ft 109kts
19-Nov-19 21:16 48.621566 -117.335219 349 6998ft 111kts
19-Nov-19 21:17 48.653006 -117.343842 350 6686ft 111kts
19-Nov-19 21:18 48.682595 -117.351966 349 6573ft 104kts
19-Nov-19 21:19 48.709907 -117.364959 305 6471ft 106kts
19-Nov-19 21:20 48.712816 -117.410506 268 6378ft 111kts
19-Nov-19 21:21 48.710078 -117.458994 267 6339ft 115kts
19-Nov-19 21:22 48.706514 -117.508863 267 6243ft 117kts
19-Nov-19 21:23 48.712954 -117.555714 305 6236ft 113kts
19-Nov-19 21:24 48.740826 -117.572418 359 6355ft 108kts
19-Nov-19 21:25 48.771176 -117.573547 1 6443ft 103kts
19-Nov-19 21:26 48.800785 -117.576420 352 6102ft 105kts
19-Nov-19 21:27 48.829963 -117.581140 355 5783ft 105kts
19-Nov-19 21:28 48.859320 -117.581764 357 5419ft 103kts
19-Nov-19 21:29 48.887257 -117.586770 357 4948ft 98kts
19-Nov-19 21:30 48.914730 -117.589798 358 4521ft 96kts
19-Nov-19 21:31 48.941754 -117.590244 356 4107ft 96kts
19-Nov-19 21:32 48.968258 -117.589719 9 3540ft 96kts
19-Nov-19 21:33 48.991039 -117.596051 335 3313ft 83kts
19-Nov-19 21:34 49.014154 -117.606341 352 2674ft 80kts
19-Nov-19 21:35 49.034788 -117.608259 359 1827ft 70kts
19-Nov-19 21:36 49.053000 -117.609217 352 1427ft 47kts
19-Nov-19 21:37 49.056486 -117.608067 85 1427ft 0kts

Navigation Log

Ident Type
Flight plan parsing failed, navigation log unavailable